createdAt,value
2022-08-26T00:02:08.337Z,101399.44
2022-08-26T00:04:38.207Z,101399.53
2022-08-26T00:07:07.570Z,101390.50
2022-08-26T00:09:40.289Z,101403.19
2022-08-26T00:12:12.233Z,101403.56
2022-08-26T00:14:43.675Z,101405.25
2022-08-26T00:17:13.000Z,101399.16
2022-08-26T00:19:42.251Z,101416.69
2022-08-26T00:22:12.163Z,101420.41
2022-08-26T00:24:47.784Z,101410.91
2022-08-26T00:27:17.329Z,101399.25
2022-08-26T00:29:47.842Z,101398.50
2022-08-26T00:32:17.504Z,101418.13
2022-08-26T00:34:46.984Z,101416.31
2022-08-26T00:37:17.090Z,101421.84
2022-08-26T00:39:46.690Z,101389.81
2022-08-26T00:42:15.948Z,101397.16
2022-08-26T00:44:45.365Z,101403.59
2022-08-26T00:47:24.422Z,101397.25
2022-08-26T00:49:54.782Z,101383.31
2022-08-26T00:52:25.552Z,101382.94
2022-08-26T00:55:02.676Z,101372.69
2022-08-26T00:57:34.480Z,101382.03
2022-08-26T01:00:08.646Z,101382.03
2022-08-26T01:02:39.843Z,101383.00
2022-08-26T01:05:16.944Z,101361.50
2022-08-26T01:07:47.133Z,101380.09
2022-08-26T01:10:21.458Z,101399.34
2022-08-26T01:12:57.511Z,101387.16
2022-08-26T01:15:33.506Z,101394.75
2022-08-26T01:18:05.703Z,101394.31
2022-08-26T01:20:47.414Z,101364.94
2022-08-26T01:23:18.387Z,101390.66
2022-08-26T01:26:03.643Z,101382.06
2022-08-26T01:28:37.336Z,101401.09
2022-08-26T01:31:12.936Z,101385.91
2022-08-26T01:34:00.889Z,101395.09
2022-08-26T01:36:30.942Z,101397.78
2022-08-26T01:39:07.196Z,101402.38
2022-08-26T01:41:38.086Z,101401.50
2022-08-26T01:44:11.195Z,101402.53
2022-08-26T01:46:40.886Z,101398.38
2022-08-26T01:49:11.571Z,101398.03
2022-08-26T01:51:44.529Z,101401.25
2022-08-26T01:54:15.302Z,101405.28
2022-08-26T01:56:44.990Z,101407.72
2022-08-26T01:59:16.419Z,101406.81
2022-08-26T02:01:46.947Z,101415.91
2022-08-26T02:04:22.353Z,101410.81
2022-08-26T02:06:53.097Z,101414.88
2022-08-26T02:09:25.963Z,101422.72
2022-08-26T02:12:00.665Z,101421.19
2022-08-26T02:14:35.961Z,101427.19
2022-08-26T02:17:13.661Z,101423.03
2022-08-26T02:19:49.651Z,101410.56
2022-08-26T02:22:22.976Z,101424.41
2022-08-26T02:24:58.427Z,101412.19
2022-08-26T02:27:32.165Z,101434.78
2022-08-26T02:30:11.658Z,101434.13
2022-08-26T02:32:41.713Z,101429.25
2022-08-26T02:35:18.249Z,101440.09
2022-08-26T02:37:50.658Z,101429.50
2022-08-26T02:40:26.758Z,101435.28
2022-08-26T02:42:57.085Z,101433.97
2022-08-26T02:45:29.089Z,101434.78
2022-08-26T02:47:59.613Z,101423.97
2022-08-26T02:50:31.305Z,101426.28
2022-08-26T02:53:01.436Z,101438.53
2022-08-26T02:55:33.654Z,101426.06
2022-08-26T02:58:03.077Z,101435.28
2022-08-26T03:00:32.995Z,101426.50
2022-08-26T03:03:08.290Z,101413.47
2022-08-26T03:05:38.393Z,101411.75
2022-08-26T03:08:11.941Z,101429.28
2022-08-26T03:10:42.618Z,101430.56
2022-08-26T03:13:11.927Z,101387.09
2022-08-26T03:15:41.810Z,101436.44
2022-08-26T03:18:12.666Z,101421.91
2022-08-26T03:20:41.899Z,101435.75
2022-08-26T03:23:11.065Z,101440.47
2022-08-26T03:25:41.722Z,101437.69
2022-08-26T03:28:11.821Z,101438.63
2022-08-26T03:30:44.194Z,101436.22
2022-08-26T03:33:16.146Z,101443.13
2022-08-26T03:35:50.628Z,101425.47
2022-08-26T03:38:21.582Z,101429.88
2022-08-26T03:40:52.979Z,101411.28
2022-08-26T03:43:26.790Z,101429.75
2022-08-26T03:45:56.166Z,101420.88
2022-08-26T03:48:26.654Z,101436.44
2022-08-26T03:50:55.806Z,101435.53
2022-08-26T03:53:26.919Z,101437.94
2022-08-26T03:55:57.757Z,101436.34
2022-08-26T03:58:26.931Z,101419.03
2022-08-26T04:00:56.154Z,101433.31
2022-08-26T04:03:39.292Z,101439.56
2022-08-26T04:06:09.375Z,101445.69
2022-08-26T04:08:39.516Z,101419.34
2022-08-26T04:11:16.814Z,101431.81
2022-08-26T04:13:46.564Z,101420.59
2022-08-26T04:16:18.572Z,101413.34
2022-08-26T04:18:48.550Z,101433.97
2022-08-26T04:21:18.018Z,101437.06
2022-08-26T04:23:48.079Z,101398.03
2022-08-26T04:26:21.734Z,101422.38
2022-08-26T04:28:53.798Z,101443.03
2022-08-26T04:31:23.422Z,101430.31
2022-08-26T04:33:53.186Z,101435.06
2022-08-26T04:36:23.646Z,101442.09
2022-08-26T04:38:53.195Z,101434.00
2022-08-26T04:41:24.997Z,101442.06
2022-08-26T04:43:54.942Z,101436.59
2022-08-26T04:46:26.491Z,101427.56
2022-08-26T04:48:56.547Z,101448.00
2022-08-26T04:51:28.146Z,101441.75
2022-08-26T04:53:57.886Z,101437.44
2022-08-26T04:56:32.746Z,101441.47
2022-08-26T04:59:03.745Z,101433.88
2022-08-26T05:01:39.711Z,101451.19
2022-08-26T05:04:08.796Z,101438.94
2022-08-26T05:06:38.575Z,101452.00
2022-08-26T05:09:08.181Z,101452.44
2022-08-26T05:11:38.911Z,101455.09
2022-08-26T05:14:08.215Z,101431.75
2022-08-26T05:16:37.732Z,101456.78
2022-08-26T05:19:10.087Z,101455.97
2022-08-26T05:21:39.768Z,101454.38
2022-08-26T05:24:11.787Z,101457.63
2022-08-26T05:26:42.550Z,101437.91
2022-08-26T05:29:14.604Z,101454.06
2022-08-26T05:31:43.820Z,101464.13
2022-08-26T05:34:12.993Z,101464.97
2022-08-26T05:36:42.174Z,101466.63
2022-08-26T05:39:11.654Z,101457.91
2022-08-26T05:41:44.757Z,101460.19
2022-08-26T05:44:19.009Z,101466.06
2022-08-26T05:46:49.490Z,101475.28
2022-08-26T05:49:20.628Z,101480.47
2022-08-26T05:51:55.395Z,101485.53
2022-08-26T05:54:24.587Z,101459.31
2022-08-26T05:56:55.205Z,101471.94
2022-08-26T05:59:24.877Z,101479.44
2022-08-26T06:01:54.928Z,101479.13
2022-08-26T06:04:27.849Z,101488.81
2022-08-26T06:06:58.267Z,101491.97
2022-08-26T06:09:27.961Z,101494.56
2022-08-26T06:11:58.951Z,101464.75
2022-08-26T06:14:28.115Z,101503.19
2022-08-26T06:16:57.734Z,101497.44
2022-08-26T06:19:32.660Z,101504.88
2022-08-26T06:22:23.597Z,101479.59
2022-08-26T06:25:10.255Z,101505.97
2022-08-26T06:27:40.800Z,101492.88
2022-08-26T06:30:11.734Z,101493.16
2022-08-26T06:32:41.733Z,101499.34
2022-08-26T06:35:11.933Z,101500.78
2022-08-26T06:37:42.985Z,101504.06
2022-08-26T06:40:13.270Z,101504.22
2022-08-26T06:42:43.970Z,101517.19
2022-08-26T06:45:13.966Z,101493.75
2022-08-26T06:47:43.161Z,101525.84
2022-08-26T06:50:12.365Z,101509.19
2022-08-26T06:52:43.548Z,101533.78
2022-08-26T06:55:12.867Z,101531.56
2022-08-26T06:57:43.411Z,101542.06
2022-08-26T07:00:15.506Z,101519.56
2022-08-26T07:02:46.217Z,101531.63
2022-08-26T07:05:16.450Z,101533.19
2022-08-26T07:07:45.738Z,101541.13
2022-08-26T07:10:15.355Z,101540.16
2022-08-26T07:12:47.192Z,101542.63
2022-08-26T07:15:17.090Z,101533.09
2022-08-26T07:17:46.426Z,101540.72
2022-08-26T07:20:15.756Z,101540.84
2022-08-26T07:22:46.502Z,101549.94
2022-08-26T07:25:15.747Z,101547.84
2022-08-26T07:27:46.549Z,101548.84
2022-08-26T07:30:23.658Z,101558.91
2022-08-26T07:32:59.290Z,101558.28
2022-08-26T07:35:28.732Z,101547.28
2022-08-26T07:37:58.478Z,101556.78
2022-08-26T07:40:27.728Z,101556.16
2022-08-26T07:42:59.070Z,101562.47
2022-08-26T07:45:30.813Z,101562.47
2022-08-26T07:48:00.042Z,101572.56
2022-08-26T07:50:49.158Z,101546.59
2022-08-26T07:53:22.234Z,101551.81
2022-08-26T07:55:54.238Z,101561.38
2022-08-26T07:58:24.855Z,101563.00
2022-08-26T08:00:55.224Z,101563.81
2022-08-26T08:03:27.161Z,101569.19
2022-08-26T08:05:56.619Z,101557.84
2022-08-26T08:08:29.303Z,101570.13
2022-08-26T08:10:59.623Z,101579.09
2022-08-26T08:13:30.878Z,101565.81
2022-08-26T08:16:01.114Z,101566.09
2022-08-26T08:18:30.368Z,101565.09
2022-08-26T08:21:21.397Z,101569.75
2022-08-26T08:23:53.058Z,101567.19
2022-08-26T08:26:23.199Z,101568.00
2022-08-26T08:34:21.591Z,101576.44
2022-08-26T08:36:53.545Z,101580.66
2022-08-26T08:39:23.491Z,101582.63
2022-08-26T08:42:16.218Z,101578.09
2022-08-26T08:44:51.941Z,101582.63
2022-08-26T08:47:29.151Z,101589.00
2022-08-26T08:50:05.642Z,101567.75
2022-08-26T08:52:37.296Z,101583.78
2022-08-26T08:55:10.993Z,101571.28
2022-08-26T08:57:54.461Z,101579.41
2022-08-26T09:00:30.252Z,101588.44
2022-08-26T09:03:09.440Z,101582.56
2022-08-26T09:05:48.748Z,101579.94
2022-08-26T09:08:24.512Z,101587.13
2022-08-26T09:10:59.274Z,101579.53
2022-08-26T09:13:31.749Z,101586.09
2022-08-26T09:16:08.403Z,101584.13
2022-08-26T09:19:00.896Z,101584.13
2022-08-26T09:21:32.126Z,101593.31
2022-08-26T09:24:01.645Z,101593.59
2022-08-26T09:26:43.852Z,101594.53
2022-08-26T09:29:23.948Z,101583.13
2022-08-26T09:32:16.099Z,101606.56
2022-08-26T09:34:58.230Z,101603.56
2022-08-26T09:37:41.754Z,101612.38
2022-08-26T09:40:34.677Z,101598.44
2022-08-26T09:43:22.506Z,101604.44
2022-08-26T09:45:59.605Z,101618.22
2022-08-26T09:48:36.093Z,101612.69
2022-08-26T09:51:08.088Z,101619.63
2022-08-26T09:53:53.429Z,101614.25
2022-08-26T09:56:28.936Z,101593.31
2022-08-26T09:58:59.688Z,101621.00
2022-08-26T10:01:35.536Z,101612.16
2022-08-26T10:04:10.425Z,101616.53
2022-08-26T10:06:44.822Z,101608.59
2022-08-26T10:09:18.766Z,101615.72
2022-08-26T10:11:52.181Z,101614.66
2022-08-26T10:14:27.454Z,101615.28
2022-08-26T10:17:07.032Z,101612.63
2022-08-26T10:19:57.033Z,101619.22
2022-08-26T10:22:34.325Z,101623.28
2022-08-26T10:25:12.471Z,101624.56
2022-08-26T10:27:53.424Z,101625.56
2022-08-26T10:30:30.420Z,101628.41
2022-08-26T10:33:08.069Z,101627.25
2022-08-26T10:35:49.676Z,101631.25
2022-08-26T10:38:28.874Z,101627.00
2022-08-26T10:41:09.939Z,101622.19
2022-08-26T10:43:47.631Z,101634.91
2022-08-26T10:46:27.091Z,101629.59
2022-08-26T10:49:01.518Z,101631.38
2022-08-26T10:51:42.301Z,101626.03
2022-08-26T10:54:23.748Z,101631.25
2022-08-26T10:57:02.955Z,101639.22
2022-08-26T10:59:49.722Z,101630.16
2022-08-26T11:02:32.018Z,101623.81
2022-08-26T11:05:04.609Z,101638.53
2022-08-26T11:07:38.289Z,101636.19
2022-08-26T11:10:14.114Z,101637.03
2022-08-26T11:13:09.088Z,101635.22
2022-08-26T11:16:11.323Z,101631.91
2022-08-26T11:18:47.151Z,101634.72
2022-08-26T11:21:48.855Z,101630.59
2022-08-26T11:25:05.477Z,101644.28
2022-08-26T11:28:06.009Z,101635.22
2022-08-26T11:30:56.867Z,101621.88
2022-08-26T11:33:59.844Z,101629.50
2022-08-26T11:36:59.794Z,101635.63
2022-08-26T11:39:36.959Z,101636.19
2022-08-26T11:42:28.493Z,101640.59
2022-08-26T11:44:59.864Z,101648.91
2022-08-26T11:47:33.699Z,101640.78
2022-08-26T11:50:18.233Z,101625.84
2022-08-26T11:53:02.419Z,101642.38
2022-08-26T11:55:33.675Z,101627.94
2022-08-26T11:58:07.615Z,101642.66
2022-08-26T12:00:58.029Z,101642.81
2022-08-26T12:03:37.835Z,101634.94
2022-08-26T12:06:15.733Z,101641.81
2022-08-26T12:08:46.811Z,101639.16
2022-08-26T12:11:23.503Z,101646.09
2022-08-26T12:13:59.615Z,101639.78
2022-08-26T12:16:34.405Z,101640.13
2022-08-26T12:19:03.806Z,101657.00
2022-08-26T12:21:34.551Z,101655.22
2022-08-26T12:24:05.535Z,101652.81
2022-08-26T12:26:38.218Z,101642.75
2022-08-26T12:29:20.071Z,101648.31
2022-08-26T12:32:11.190Z,101636.19
2022-08-26T12:34:41.762Z,101641.81
2022-08-26T12:37:14.156Z,101650.94
2022-08-26T12:39:46.117Z,101652.47
2022-08-26T12:42:42.496Z,101647.97
2022-08-26T12:45:13.440Z,101634.31
2022-08-26T12:47:45.232Z,101646.63
2022-08-26T12:50:26.662Z,101638.81
2022-08-26T12:53:01.838Z,101648.59
2022-08-26T12:55:44.102Z,101656.88
2022-08-26T12:58:27.681Z,101649.25
2022-08-26T13:01:09.954Z,101651.00
2022-08-26T13:03:44.879Z,101661.63
2022-08-26T13:06:33.128Z,101661.13
2022-08-26T13:09:31.499Z,101660.91
2022-08-26T13:12:02.224Z,101661.84
2022-08-26T13:14:31.767Z,101659.56
2022-08-26T13:17:02.261Z,101645.66
2022-08-26T13:19:31.547Z,101646.28
2022-08-26T13:22:06.220Z,101647.63
2022-08-26T13:24:39.347Z,101646.66
2022-08-26T13:27:12.194Z,101653.25
2022-08-26T13:29:42.072Z,101652.06
2022-08-26T13:32:12.643Z,101656.78
2022-08-26T13:34:42.808Z,101659.44
2022-08-26T13:37:11.942Z,101659.50
2022-08-26T13:39:42.091Z,101645.78
2022-08-26T13:42:11.299Z,101656.09
2022-08-26T13:44:43.067Z,101650.47
2022-08-26T13:47:13.660Z,101652.34
2022-08-26T13:49:44.786Z,101643.66
2022-08-26T13:52:15.025Z,101651.75
2022-08-26T13:54:47.599Z,101649.41
2022-08-26T13:57:16.634Z,101653.97
2022-08-26T13:59:46.179Z,101646.31
2022-08-26T14:02:19.540Z,101650.06
2022-08-26T14:04:51.821Z,101635.84
2022-08-26T14:07:21.124Z,101640.03
2022-08-26T14:09:50.376Z,101645.41
2022-08-26T14:12:19.594Z,101645.75
2022-08-26T14:14:49.041Z,101647.78
2022-08-26T14:17:24.513Z,101636.03
2022-08-26T14:19:54.950Z,101642.41
2022-08-26T14:22:24.718Z,101634.44
2022-08-26T14:24:54.062Z,101639.63
2022-08-26T14:27:23.288Z,101640.44
2022-08-26T14:29:52.533Z,101642.47
2022-08-26T14:32:28.304Z,101634.69
2022-08-26T14:34:57.812Z,101642.66
2022-08-26T14:37:27.365Z,101637.22
2022-08-26T14:39:56.913Z,101634.69
2022-08-26T14:42:31.600Z,101643.41
2022-08-26T14:45:04.098Z,101645.38
2022-08-26T14:47:34.825Z,101648.22
2022-08-26T14:50:04.515Z,101643.47
2022-08-26T14:52:54.153Z,101637.66
2022-08-26T14:55:22.285Z,101634.31
2022-08-26T14:57:51.386Z,101631.16
2022-08-26T15:00:20.840Z,101625.03
2022-08-26T15:02:52.120Z,101631.53
2022-08-26T15:05:21.679Z,101634.03
2022-08-26T15:07:50.793Z,101632.16
2022-08-26T15:10:20.904Z,101623.53
2022-08-26T15:12:50.067Z,101629.63
2022-08-26T15:15:19.858Z,101623.81
2022-08-26T15:17:50.426Z,101629.53
2022-08-26T15:20:20.409Z,101632.88
2022-08-26T15:22:51.160Z,101624.41
2022-08-26T15:25:20.518Z,101625.94
2022-08-26T15:27:49.717Z,101624.56
2022-08-26T15:30:18.947Z,101614.94
2022-08-26T15:32:48.204Z,101629.72
2022-08-26T15:35:19.526Z,101613.81
2022-08-26T15:40:23.705Z,101616.00
2022-08-26T15:43:01.226Z,101626.56
2022-08-26T15:45:40.747Z,101621.44
2022-08-26T15:50:51.802Z,101624.28
2022-08-26T15:53:22.669Z,101607.88
2022-08-26T15:55:54.239Z,101622.25
2022-08-26T15:58:24.294Z,101614.47
2022-08-26T16:00:57.027Z,101612.13
2022-08-26T16:03:26.290Z,101620.78
2022-08-26T16:05:56.990Z,101606.66
2022-08-26T16:08:27.140Z,101614.59
2022-08-26T16:11:03.366Z,101613.72
2022-08-26T16:13:39.868Z,101599.84
2022-08-26T16:16:10.195Z,101606.75
2022-08-26T16:18:39.589Z,101599.41
2022-08-26T16:21:13.309Z,101602.72
2022-08-26T16:23:45.370Z,101609.38
2022-08-26T16:26:18.116Z,101606.22
2022-08-26T16:28:48.174Z,101603.00
2022-08-26T16:31:18.114Z,101609.19
2022-08-26T16:33:47.804Z,101604.28
2022-08-26T16:36:18.689Z,101600.03
2022-08-26T16:38:53.466Z,101591.09
2022-08-26T16:41:23.137Z,101595.50
2022-08-26T16:43:55.867Z,101596.94
2022-08-26T16:46:26.652Z,101586.03
2022-08-26T16:48:57.845Z,101593.16
2022-08-26T16:51:29.782Z,101594.81
2022-08-26T16:56:34.418Z,101597.25
2022-08-26T16:59:04.227Z,101591.25
2022-08-26T17:01:33.604Z,101599.16
2022-08-26T17:04:02.858Z,101603.56
2022-08-26T17:06:34.143Z,101608.66
2022-08-26T17:09:03.461Z,101608.22
2022-08-26T17:11:33.112Z,101588.06
2022-08-26T17:14:02.973Z,101604.13
2022-08-26T17:16:32.865Z,101602.84
2022-08-26T17:19:02.952Z,101592.75
2022-08-26T17:21:35.740Z,101595.16
2022-08-26T17:24:06.097Z,101599.47
2022-08-26T17:26:36.007Z,101604.56
2022-08-26T17:29:07.336Z,101604.69
2022-08-26T17:31:36.857Z,101610.25
2022-08-26T17:34:06.302Z,101612.88
2022-08-26T17:36:36.876Z,101606.41
2022-08-26T17:39:06.174Z,101611.88
2022-08-26T17:41:35.327Z,101615.84
2022-08-26T17:44:05.394Z,101590.19
2022-08-26T17:46:38.239Z,101606.88
2022-08-26T17:49:08.384Z,101610.31
2022-08-26T17:51:39.042Z,101607.53
2022-08-26T17:54:09.339Z,101605.84
2022-08-26T17:56:38.485Z,101604.56
2022-08-26T17:59:10.067Z,101614.63
2022-08-26T18:01:40.002Z,101620.91
2022-08-26T18:04:10.191Z,101599.31
2022-08-26T18:06:43.533Z,101616.97
2022-08-26T18:09:13.038Z,101613.91
2022-08-26T18:11:42.313Z,101623.63
2022-08-26T18:14:11.525Z,101622.81
2022-08-26T18:16:41.761Z,101616.00
2022-08-26T18:19:11.728Z,101612.91
2022-08-26T18:21:42.430Z,101630.38
2022-08-26T18:24:14.087Z,101640.63
2022-08-26T18:26:48.353Z,101625.81
2022-08-26T18:29:24.055Z,101643.66
2022-08-26T18:31:53.632Z,101643.22
2022-08-26T18:34:23.268Z,101633.97
2022-08-26T18:37:02.114Z,101643.53
2022-08-26T18:39:31.550Z,101637.34
2022-08-26T18:42:03.520Z,101650.06
2022-08-26T18:44:32.778Z,101644.25
2022-08-26T18:47:02.094Z,101631.44
2022-08-26T18:49:31.562Z,101629.69
2022-08-26T18:52:02.700Z,101640.22
2022-08-26T18:54:32.430Z,101646.13
2022-08-26T18:57:02.858Z,101647.72
2022-08-26T18:59:32.362Z,101644.50
2022-08-26T19:02:01.798Z,101643.59
2022-08-26T19:04:33.991Z,101652.06
2022-08-26T19:07:06.391Z,101645.41
2022-08-26T19:09:36.035Z,101658.25
2022-08-26T19:12:08.503Z,101662.09
2022-08-26T19:14:38.242Z,101653.19
2022-08-26T19:17:07.735Z,101666.16
2022-08-26T19:19:38.868Z,101663.59
2022-08-26T19:22:09.618Z,101665.34
2022-08-26T19:24:38.838Z,101667.38
2022-08-26T19:27:11.681Z,101661.94
2022-08-26T19:29:43.588Z,101660.69
2022-08-26T19:32:12.929Z,101666.09
2022-08-26T19:34:42.539Z,101677.56
2022-08-26T19:37:13.319Z,101678.13
2022-08-26T19:39:42.635Z,101691.19
2022-08-26T19:42:11.834Z,101687.41
2022-08-26T19:44:58.808Z,101697.69
2022-08-26T19:47:28.134Z,101690.59
2022-08-26T19:49:58.281Z,101689.81
2022-08-26T19:52:30.267Z,101703.09
2022-08-26T19:54:59.865Z,101707.16
2022-08-26T19:57:29.210Z,101712.34
2022-08-26T19:59:58.551Z,101700.34
2022-08-26T20:02:28.045Z,101704.59
2022-08-26T20:04:57.918Z,101710.13
2022-08-26T20:07:28.537Z,101704.69
2022-08-26T20:09:59.462Z,101703.31
2022-08-26T20:12:29.377Z,101712.09
2022-08-26T20:14:58.877Z,101701.53
2022-08-26T20:17:28.441Z,101708.34
2022-08-26T20:20:32.743Z,101715.75
2022-08-26T20:23:05.560Z,101713.34
2022-08-26T20:25:35.791Z,101704.28
2022-08-26T20:28:05.673Z,101718.03
2022-08-26T20:30:35.446Z,101703.81
2022-08-26T20:33:05.038Z,101724.13
2022-08-26T20:35:34.635Z,101713.59
2022-08-26T20:38:06.061Z,101713.69
2022-08-26T20:40:35.922Z,101716.53
2022-08-26T20:43:06.617Z,101712.72
2022-08-26T20:45:36.404Z,101702.75
2022-08-26T20:48:06.049Z,101707.44
2022-08-26T20:50:35.376Z,101715.75
2022-08-26T20:53:06.164Z,101713.75
2022-08-26T20:55:35.843Z,101716.97
2022-08-26T20:58:05.757Z,101717.69
2022-08-26T21:00:38.358Z,101727.78
2022-08-26T21:03:07.688Z,101726.81
2022-08-26T21:05:37.649Z,101733.44
2022-08-26T21:08:08.376Z,101726.16
2022-08-26T21:10:39.481Z,101728.13
2022-08-26T21:13:09.389Z,101717.63
2022-08-26T21:15:38.773Z,101732.75
2022-08-26T21:18:08.169Z,101729.34
2022-08-26T21:20:38.455Z,101711.53
2022-08-26T21:23:09.150Z,101721.97
2022-08-26T21:25:38.439Z,101726.91
2022-08-26T21:28:07.844Z,101728.22
2022-08-26T21:30:39.612Z,101730.69
2022-08-26T21:33:09.659Z,101704.88
2022-08-26T21:35:39.027Z,101733.31
2022-08-26T21:38:09.984Z,101724.53
2022-08-26T21:40:39.281Z,101724.41
2022-08-26T21:43:08.379Z,101729.44
2022-08-26T21:45:42.848Z,101717.59
2022-08-26T21:48:12.239Z,101730.44
2022-08-26T21:50:41.505Z,101735.81
2022-08-26T21:53:15.480Z,101733.22
2022-08-26T21:55:45.844Z,101738.25
2022-08-26T21:58:15.460Z,101729.66
2022-08-26T22:00:50.026Z,101731.94
2022-08-26T22:03:19.789Z,101732.47
2022-08-26T22:05:51.370Z,101735.88
2022-08-26T22:08:24.934Z,101730.22
2022-08-26T22:10:58.524Z,101726.00
2022-08-26T22:13:30.665Z,101738.66
2022-08-26T22:16:01.965Z,101750.88
2022-08-26T22:18:31.786Z,101743.88
2022-08-26T22:21:04.454Z,101742.59
2022-08-26T22:23:35.600Z,101751.19
2022-08-26T22:26:05.715Z,101745.69
2022-08-26T22:28:35.691Z,101748.59
2022-08-26T22:31:05.270Z,101751.69
2022-08-26T22:33:34.736Z,101748.28
2022-08-26T22:36:07.598Z,101751.50
2022-08-26T22:38:38.254Z,101743.25
2022-08-26T22:41:09.996Z,101754.47
2022-08-26T22:43:39.600Z,101749.09
2022-08-26T22:46:10.771Z,101761.13
2022-08-26T22:48:40.304Z,101754.28
2022-08-26T22:51:09.522Z,101749.75
2022-08-26T22:53:42.119Z,101753.50
2022-08-26T22:56:12.465Z,101738.88
2022-08-26T22:58:41.822Z,101749.44
2022-08-26T23:01:10.996Z,101753.66
2022-08-26T23:03:40.413Z,101756.91
2022-08-26T23:06:11.368Z,101751.53
2022-08-26T23:08:45.300Z,101755.13
2022-08-26T23:11:15.412Z,101742.78
2022-08-26T23:13:44.875Z,101759.50
2022-08-26T23:16:15.726Z,101764.97
2022-08-26T23:18:45.065Z,101764.06
2022-08-26T23:21:17.728Z,101747.47
2022-08-26T23:23:48.314Z,101758.50
2022-08-26T23:26:17.920Z,101757.16
2022-08-26T23:28:47.157Z,101759.44
2022-08-26T23:31:16.452Z,101748.75
2022-08-26T23:34:02.863Z,101751.84
2022-08-26T23:36:34.984Z,101759.78
2022-08-26T23:39:06.998Z,101735.28
2022-08-26T23:41:36.858Z,101747.75
2022-08-26T23:44:06.441Z,101743.84
2022-08-26T23:46:37.919Z,101754.06
2022-08-26T23:49:07.610Z,101750.66
2022-08-26T23:51:54.247Z,101756.66
2022-08-26T23:54:24.885Z,101741.25
2022-08-26T23:56:54.331Z,101741.06
2022-08-26T23:59:23.485Z,101749.66
